Time;durP1;ratioP1;P1;durP2;ratioP2;P2;SDS_P1;SDS_P2;PMS_P1;PMS_P2;Temp;Humidity;BMP_temperature;BMP_pressure;BME280_temperature;BME280_humidity;BME280_pressure;Samples;Min_cycle;Max_cycle;Signal;HPM_P1;HPM_P2
2023/11/06 00:02:16;;;;;;;100.93;93.50;;;;;;;15.27;100.00;94054.22;5032822;28;20438;-72
2023/11/06 00:04:43;;;;;;;433.80;258.00;;;;;;;15.17;100.00;94065.03;5032983;28;20447;-75
2023/11/06 00:07:12;;;;;;;7.37;5.13;;;;;;;15.06;100.00;94063.66;5033156;28;20439;-75
2023/11/06 00:09:39;;;;;;;7.63;4.00;;;;;;;15.08;100.00;94064.28;5032370;28;20485;-73
2023/11/06 00:12:06;;;;;;;5.00;4.47;;;;;;;14.98;100.00;94063.69;5032432;28;20861;-73
2023/11/06 00:14:33;;;;;;;6.73;4.40;;;;;;;15.05;100.00;94061.19;4997532;28;20444;-73
2023/11/06 00:17:00;;;;;;;16.43;4.53;;;;;;;15.00;100.00;94069.63;5032250;28;20457;-73
2023/11/06 00:19:26;;;;;;;370.53;183.87;;;;;;;14.95;100.00;94069.34;5032240;28;20486;-74
2023/11/06 00:21:53;;;;;;;536.00;306.50;;;;;;;14.98;100.00;94071.63;5032147;28;20445;-74
2023/11/06 00:24:22;;;;;;;511.07;310.43;;;;;;;15.13;100.00;94088.34;5032326;28;20514;-74
2023/11/06 00:26:48;;;;;;;531.47;284.40;;;;;;;15.26;100.00;94095.69;5032855;28;20463;-72
2023/11/06 00:29:15;;;;;;;532.97;275.87;;;;;;;15.33;100.00;94101.91;5032252;28;20446;-72
2023/11/06 00:31:42;;;;;;;563.07;373.63;;;;;;;15.35;100.00;94099.91;5032182;28;20840;-74
2023/11/06 00:34:09;;;;;;;552.70;321.13;;;;;;;15.40;100.00;94105.47;5032305;28;20443;-73
2023/11/06 00:36:36;;;;;;;568.53;385.53;;;;;;;15.44;100.00;94109.41;5032119;28;20443;-73
2023/11/06 00:39:03;;;;;;;575.33;379.00;;;;;;;15.50;100.00;94113.16;5032431;28;20439;-73
2023/11/06 00:41:31;;;;;;;558.87;337.67;;;;;;;15.53;100.00;94111.97;5032020;28;20888;-73
2023/11/06 00:43:58;;;;;;;545.00;305.90;;;;;;;15.56;100.00;94116.91;5032164;28;20941;-73
2023/11/06 00:46:24;;;;;;;552.23;323.30;;;;;;;15.61;100.00;94119.84;5032234;28;20446;-74
2023/11/06 00:48:51;;;;;;;543.10;299.07;;;;;;;15.64;100.00;94115.06;5032150;28;20447;-74
2023/11/06 00:51:18;;;;;;;539.20;298.00;;;;;;;15.73;100.00;94118.44;4997275;28;20457;-73
2023/11/06 00:53:45;;;;;;;534.80;288.60;;;;;;;15.73;100.00;94118.44;5013469;28;20445;-73
2023/11/06 00:56:12;;;;;;;526.60;262.03;;;;;;;15.66;100.00;94120.16;5032131;28;20440;-74
2023/11/06 00:58:40;;;;;;;549.57;319.93;;;;;;;15.54;100.00;94137.41;5031875;28;20541;-74
2023/11/06 01:01:07;;;;;;;547.20;318.83;;;;;;;15.52;100.00;94131.47;5031947;28;20478;-74
2023/11/06 01:03:34;;;;;;;562.30;350.77;;;;;;;15.57;100.00;94134.41;5031912;28;20442;-73
2023/11/06 01:06:00;;;;;;;5.80;4.23;;;;;;;15.58;100.00;94131.63;5032090;28;20441;-72
2023/11/06 01:08:29;;;;;;;534.37;280.87;;;;;;;15.62;100.00;94137.41;5013663;28;20449;-74
2023/11/06 01:10:55;;;;;;;539.20;289.93;;;;;;;15.61;100.00;94141.00;5031636;28;20953;-73
2023/11/06 01:13:22;;;;;;;532.40;280.87;;;;;;;15.58;100.00;94136.06;5031821;28;20442;-73
2023/11/06 01:15:51;;;;;;;542.40;303.80;;;;;;;15.59;100.00;94140.38;5031779;28;20509;-73
2023/11/06 01:18:18;;;;;;;539.90;293.57;;;;;;;15.60;100.00;94145.47;5013122;28;21570;-73
2023/11/06 01:20:45;;;;;;;522.90;247.33;;;;;;;15.60;100.00;94140.19;5031775;28;20493;-74
2023/11/06 01:23:12;;;;;;;530.67;272.70;;;;;;;15.58;100.00;94149.28;5035232;28;20525;-74
2023/11/06 01:25:42;;;;;;;533.27;288.33;;;;;;;15.57;100.00;94150.28;5035304;28;20481;-73
2023/11/06 01:28:09;;;;;;;548.03;337.77;;;;;;;15.52;100.00;94157.94;5017698;28;20508;-74
2023/11/06 01:30:36;;;;;;;541.23;296.40;;;;;;;15.48;100.00;94153.00;5035190;28;20447;-73
2023/11/06 01:33:05;;;;;;;518.28;249.90;;;;;;;15.38;100.00;94165.66;5035258;28;20934;-74
2023/11/06 01:35:32;;;;;;;556.80;337.47;;;;;;;15.37;100.00;94165.81;5035107;28;20663;-73
2023/11/06 01:38:00;;;;;;;529.43;260.17;;;;;;;15.34;100.00;94161.72;5034949;28;20530;-74
2023/11/06 01:40:29;;;;;;;539.17;290.17;;;;;;;15.27;100.00;94168.69;5034788;28;20486;-72
2023/11/06 01:42:56;;;;;;;542.47;296.87;;;;;;;15.22;100.00;94172.88;5034923;28;20453;-75
2023/11/06 01:45:23;;;;;;;470.52;188.95;;;;;;;14.99;100.00;94172.84;5035124;28;20446;-73
2023/11/06 01:47:51;;;;;;;507.30;200.43;;;;;;;15.02;100.00;94172.47;5035117;28;20737;-71
2023/11/06 01:50:20;;;;;;;521.88;243.77;;;;;;;15.01;100.00;94170.84;5016409;28;20231;-72
2023/11/06 01:52:48;;;;;;;519.78;240.70;;;;;;;15.08;100.00;94183.19;5035128;28;20238;-74
2023/11/06 01:55:16;;;;;;;519.38;234.65;;;;;;;15.08;100.00;94177.91;5034715;28;20308;-73
2023/11/06 01:57:43;;;;;;;520.67;247.13;;;;;;;15.10;100.00;94191.78;5034724;28;20204;-73
2023/11/06 02:00:11;;;;;;;514.17;232.38;;;;;;;15.09;100.00;94181.38;5034402;28;20707;-73
2023/11/06 02:02:38;;;;;;;510.27;213.40;;;;;;;15.06;100.00;94184.38;5034534;28;20683;-73
2023/11/06 02:05:09;;;;;;;504.73;204.10;;;;;;;15.04;100.00;94179.28;5034539;28;20206;-74
2023/11/06 02:07:38;;;;;;;507.70;204.00;;;;;;;15.01;100.00;94187.50;5000744;28;20281;-72
2023/11/06 02:10:05;;;;;;;498.40;186.18;;;;;;;14.97;100.00;94188.03;5034357;28;20214;-74
2023/11/06 02:12:32;;;;;;;492.63;174.80;;;;;;;14.83;100.00;94179.06;4999602;28;20214;-74
2023/11/06 02:14:59;;;;;;;480.35;160.57;;;;;;;14.78;100.00;94186.69;5034150;28;20258;-72
2023/11/06 02:17:26;;;;;;;491.23;168.23;;;;;;;14.70;100.00;94190.16;5034774;28;20205;-72
2023/11/06 02:19:53;;;;;;;488.40;211.45;;;;;;;14.66;100.00;94188.84;5034228;28;20270;-74
2023/11/06 02:22:22;;;;;;;490.85;164.02;;;;;;;14.68;100.00;94199.25;5034634;28;20215;-73
2023/11/06 02:24:51;;;;;;;481.23;159.35;;;;;;;14.68;100.00;94200.06;5034163;28;20631;-74
2023/11/06 02:27:19;;;;;;;483.52;154.93;;;;;;;14.67;100.00;94200.25;5015791;28;20209;-74
2023/11/06 02:29:46;;;;;;;482.35;160.27;;;;;;;14.62;100.00;94210.50;5034022;28;20238;-73
2023/11/06 02:32:13;;;;;;;490.20;164.65;;;;;;;14.56;100.00;94219.94;5034115;28;20239;-73
2023/11/06 02:34:41;;;;;;;487.13;157.80;;;;;;;14.53;100.00;94209.72;5033401;28;20203;-74
2023/11/06 02:37:09;;;;;;;485.77;157.68;;;;;;;14.45;100.00;94207.09;5033942;28;20199;-73
2023/11/06 02:39:35;;;;;;;487.88;158.13;;;;;;;14.44;100.00;94206.25;5033957;28;20234;-74
2023/11/06 02:42:04;;;;;;;489.52;167.70;;;;;;;14.46;100.00;94214.88;5034067;28;20232;-74
2023/11/06 02:44:32;;;;;;;489.15;167.40;;;;;;;14.46;100.00;94206.94;5034012;28;20208;-74
2023/11/06 02:46:59;;;;;;;484.75;150.23;;;;;;;14.42;100.00;94216.13;5015438;28;20209;-74
2023/11/06 02:49:26;;;;;;;479.92;154.32;;;;;;;14.37;100.00;94229.03;5033764;28;20693;-73
2023/11/06 02:51:53;;;;;;;481.15;150.65;;;;;;;14.32;100.00;94225.25;5033678;28;20207;-73
2023/11/06 02:54:22;;;;;;;475.05;150.25;;;;;;;14.32;100.00;94233.16;5033636;28;20203;-73
2023/11/06 02:56:49;;;;;;;481.02;153.25;;;;;;;14.25;100.00;94228.56;5033951;28;20239;-73
2023/11/06 02:59:17;;;;;;;254.97;100.40;;;;;;;14.16;100.00;94224.28;5033407;28;20200;-73
2023/11/06 03:01:44;;;;;;;164.80;71.53;;;;;;;14.02;100.00;94227.63;5033363;28;20479;-73
2023/11/06 03:04:12;;;;;;;7.13;5.33;;;;;;;13.97;100.00;94240.50;5033474;28;20805;-74
2023/11/06 03:06:40;;;;;;;7.53;5.80;;;;;;;13.99;100.00;94249.06;5033310;28;20449;-73
2023/11/06 03:09:08;;;;;;;8.63;6.57;;;;;;;13.99;100.00;94251.69;5033748;28;20504;-73
2023/11/06 03:11:35;;;;;;;6.67;5.50;;;;;;;13.99;100.00;94259.63;5033703;28;20494;-73
2023/11/06 03:14:05;;;;;;;7.10;5.83;;;;;;;14.02;100.00;94272.47;5033223;28;20445;-71
2023/11/06 03:16:34;;;;;;;6.03;5.43;;;;;;;14.05;100.00;94274.78;5033331;28;20447;-73
2023/11/06 03:19:05;;;;;;;8.37;5.07;;;;;;;14.00;100.00;94271.81;5033003;28;20501;-74
2023/11/06 03:21:32;;;;;;;5.50;5.00;;;;;;;13.86;100.00;94280.38;5032996;28;20485;-73
2023/11/06 03:23:59;;;;;;;7.03;5.27;;;;;;;13.77;100.00;94276.91;5033079;28;20443;-73
2023/11/06 03:26:25;;;;;;;5.60;5.00;;;;;;;13.63;100.00;94278.41;5033177;28;20448;-74
2023/11/06 03:28:53;;;;;;;7.37;5.17;;;;;;;13.64;100.00;94292.41;5033542;28;20791;-74
2023/11/06 03:31:20;;;;;;;7.53;5.13;;;;;;;13.68;100.00;94287.63;4998693;28;20826;-74
2023/11/06 03:33:48;;;;;;;11.00;5.50;;;;;;;13.70;100.00;94285.66;5032827;28;20446;-73
2023/11/06 03:36:15;;;;;;;9.37;6.10;;;;;;;13.59;100.00;94292.09;5032904;28;20449;-73
2023/11/06 03:38:42;;;;;;;9.13;6.30;;;;;;;13.59;100.00;94285.00;5033168;28;20448;-73
2023/11/06 03:41:08;;;;;;;7.07;5.70;;;;;;;13.61;100.00;94292.75;5014199;28;20500;-74
2023/11/06 03:43:35;;;;;;;10.20;5.53;;;;;;;13.65;100.00;94294.06;5032893;28;20440;-70
2023/11/06 03:46:02;;;;;;;12.40;5.67;;;;;;;13.70;100.00;94297.03;5013776;28;20430;-74
2023/11/06 03:48:29;;;;;;;10.00;6.30;;;;;;;13.69;100.00;94310.38;5032883;28;20472;-73
2023/11/06 03:50:57;;;;;;;11.60;5.70;;;;;;;13.60;100.00;94317.47;5032515;28;20445;-74
2023/11/06 03:53:24;;;;;;;8.63;4.97;;;;;;;13.56;100.00;94321.38;5032673;28;20439;-73
2023/11/06 03:55:51;;;;;;;8.20;5.17;;;;;;;13.58;100.00;94332.59;5032863;28;20473;-73
2023/11/06 03:58:18;;;;;;;9.63;6.27;;;;;;;13.63;100.00;94338.22;5032812;28;20457;-73
2023/11/06 04:00:46;;;;;;;102.67;97.43;;;;;;;13.58;100.00;94336.03;5032362;28;21014;-72
2023/11/06 04:03:13;;;;;;;275.37;261.73;;;;;;;13.55;100.00;94341.66;5032792;28;20446;-73
2023/11/06 04:05:40;;;;;;;4.90;4.40;;;;;;;13.56;100.00;94343.28;5032555;28;20446;-74
2023/11/06 04:08:09;;;;;;;5.27;4.60;;;;;;;13.49;100.00;94342.28;5033002;28;20434;-72
2023/11/06 04:10:37;;;;;;;5.60;4.83;;;;;;;13.47;100.00;94365.34;5032352;28;20453;-75
2023/11/06 04:13:04;;;;;;;9.07;4.67;;;;;;;13.40;100.00;94340.63;5032316;28;20932;-74
2023/11/06 04:15:31;;;;;;;332.33;109.67;;;;;;;13.24;100.00;94354.56;5032160;28;20442;-74
2023/11/06 04:17:58;;;;;;;490.40;155.40;;;;;;;13.21;100.00;94364.59;5032484;28;20445;-74
2023/11/06 04:20:24;;;;;;;487.03;164.87;;;;;;;13.25;100.00;94363.28;5032322;28;20448;-74
2023/11/06 04:22:51;;;;;;;7.40;4.80;;;;;;;13.15;100.00;94358.13;5032032;28;20442;-74
2023/11/06 04:25:19;;;;;;;5.60;3.90;;;;;;;13.19;100.00;94362.13;5013680;28;20453;-73
2023/11/06 04:27:46;;;;;;;21.70;13.73;;;;;;;13.17;100.00;94369.38;5032234;28;20444;-74
2023/11/06 04:30:14;;;;;;;7.60;4.87;;;;;;;13.16;100.00;94362.41;4998108;28;20455;-75
2023/11/06 04:32:41;;;;;;;6.33;5.20;;;;;;;13.15;100.00;94376.56;5032643;28;20446;-75
2023/11/06 04:35:08;;;;;;;8.87;5.10;;;;;;;13.11;100.00;94385.78;5032287;28;20447;-73
2023/11/06 04:37:36;;;;;;;9.03;4.77;;;;;;;13.05;100.00;94386.41;5032068;28;20437;-74
2023/11/06 04:40:05;;;;;;;517.20;193.03;;;;;;;12.99;100.00;94393.13;5031960;28;20469;-73
2023/11/06 04:42:34;;;;;;;540.70;246.13;;;;;;;12.84;100.00;94380.69;5031811;28;20534;-72
2023/11/06 04:45:01;;;;;;;535.60;217.83;;;;;;;12.79;100.00;94383.81;5032056;28;20451;-73
2023/11/06 04:47:28;;;;;;;536.10;224.57;;;;;;;12.73;100.00;94396.78;5031939;28;20448;-71
2023/11/06 04:49:55;;;;;;;534.43;208.87;;;;;;;12.75;100.00;94398.28;5032232;28;20533;-74
2023/11/06 04:52:22;;;;;;;534.00;220.07;;;;;;;12.69;100.00;94404.13;5032227;28;20453;-73
2023/11/06 04:54:49;;;;;;;538.27;222.27;;;;;;;12.70;100.00;94408.41;5031808;28;20480;-73
2023/11/06 04:57:16;;;;;;;531.00;213.17;;;;;;;12.71;100.00;94417.97;5034234;28;20441;-74
2023/11/06 04:59:44;;;;;;;535.03;215.17;;;;;;;12.76;100.00;94418.34;5035803;28;20473;-74
2023/11/06 05:02:11;;;;;;;531.37;216.97;;;;;;;12.75;100.00;94421.97;5017215;28;20857;-73
2023/11/06 05:04:38;;;;;;;530.90;220.57;;;;;;;12.77;100.00;94433.16;5035932;28;20774;-71
2023/11/06 05:07:05;;;;;;;532.57;216.27;;;;;;;12.72;100.00;94438.03;5035805;28;20455;-73
2023/11/06 05:09:31;;;;;;;533.97;221.27;;;;;;;12.78;100.00;94431.34;5035570;28;20445;-73
2023/11/06 05:11:58;;;;;;;536.57;228.20;;;;;;;12.49;100.00;94429.00;5035700;28;20843;-73
2023/11/06 05:14:25;;;;;;;536.73;215.73;;;;;;;12.46;100.00;94439.84;5036027;28;20443;-73
2023/11/06 05:16:54;;;;;;;541.80;235.17;;;;;;;12.50;100.00;94455.19;5017357;28;20489;-73
2023/11/06 05:19:21;;;;;;;542.63;230.33;;;;;;;12.55;100.00;94460.81;5016776;28;20483;-73
2023/11/06 05:21:47;;;;;;;539.07;224.00;;;;;;;12.60;100.00;94444.53;5035337;28;20492;-73
2023/11/06 05:24:14;;;;;;;539.77;222.87;;;;;;;12.61;100.00;94483.06;5035144;28;20806;-71
2023/11/06 05:26:41;;;;;;;539.17;224.47;;;;;;;12.61;100.00;94483.06;5035607;28;20796;-74
2023/11/06 05:29:08;;;;;;;541.87;233.43;;;;;;;12.90;100.00;94491.50;5035390;28;20447;-73
2023/11/06 05:31:35;;;;;;;544.20;244.23;;;;;;;13.62;100.00;94497.41;5035280;28;20456;-74
2023/11/06 05:34:03;;;;;;;555.43;280.03;;;;;;;14.20;98.93;94496.59;5035213;28;20500;-73
2023/11/06 05:36:30;;;;;;;564.37;319.67;;;;;;;15.08;96.97;94523.28;5035495;28;20449;-73
2023/11/06 05:38:57;;;;;;;568.13;327.30;;;;;;;15.96;90.32;94515.31;5035530;28;20450;-74
2023/11/06 05:41:25;;;;;;;565.77;347.60;;;;;;;16.55;87.70;94531.56;5035399;28;20906;-74
2023/11/06 05:43:52;;;;;;;560.80;357.40;;;;;;;17.29;85.25;94535.31;5035398;28;20457;-74
2023/11/06 05:46:18;;;;;;;567.30;396.00;;;;;;;17.69;80.33;94550.06;5035275;28;20447;-74
2023/11/06 05:48:45;;;;;;;570.83;404.60;;;;;;;18.06;78.75;94543.00;5034825;28;20814;-74
2023/11/06 05:51:13;;;;;;;578.80;442.73;;;;;;;18.32;78.50;94553.97;5035131;28;20450;-73
2023/11/06 05:53:40;;;;;;;587.57;482.77;;;;;;;18.82;75.97;94570.94;5000284;28;20933;-73
2023/11/06 05:56:08;;;;;;;586.23;499.93;;;;;;;19.00;73.47;94566.00;5035405;28;20443;-74
2023/11/06 05:58:35;;;;;;;593.23;515.87;;;;;;;18.93;73.02;94554.47;5036724;28;20439;-73
2023/11/06 06:01:02;;;;;;;618.60;552.33;;;;;;;18.57;75.77;94560.63;5034865;28;20440;-72
2023/11/06 06:03:29;;;;;;;603.03;536.73;;;;;;;18.56;77.05;94572.25;5016532;28;20506;-73
2023/11/06 06:05:55;;;;;;;591.70;523.77;;;;;;;18.32;77.47;94556.63;5034667;28;20448;-73
2023/11/06 06:08:24;;;;;;;587.03;505.93;;;;;;;17.91;80.42;94575.69;5034987;28;20450;-72
2023/11/06 06:10:51;;;;;;;583.50;487.23;;;;;;;18.13;81.00;94581.91;5034788;28;20926;-73
2023/11/06 06:13:18;;;;;;;587.27;508.20;;;;;;;18.37;79.20;94575.50;5034997;28;20443;-72
2023/11/06 06:15:45;;;;;;;596.77;531.30;;;;;;;18.52;79.11;94584.28;5034641;28;20442;-73
2023/11/06 06:18:11;;;;;;;582.07;483.50;;;;;;;18.45;78.95;94591.31;5034302;28;20449;-72
2023/11/06 06:20:38;;;;;;;580.13;486.77;;;;;;;18.46;79.45;94592.97;5034236;28;20520;-74
2023/11/06 06:23:05;;;;;;;582.80;488.20;;;;;;;18.35;79.87;94590.78;5034204;28;21014;-74
2023/11/06 06:25:36;;;;;;;586.23;504.17;;;;;;;18.08;81.06;94591.44;5034273;28;20451;-73
2023/11/06 06:28:04;;;;;;;578.10;476.77;;;;;;;17.74;82.72;94586.66;5000573;28;20438;-74
2023/11/06 06:30:31;;;;;;;573.77;449.57;;;;;;;17.84;84.22;94596.00;5034322;28;20446;-74
2023/11/06 06:32:58;;;;;;;571.10;434.93;;;;;;;17.73;83.33;94592.97;5033975;28;20444;-73
2023/11/06 06:35:25;;;;;;;577.50;447.57;;;;;;;17.72;85.18;94594.81;5015922;28;20892;-74
2023/11/06 06:37:52;;;;;;;582.67;481.70;;;;;;;17.70;86.06;94603.97;5033923;28;20448;-74
2023/11/06 06:40:20;;;;;;;574.07;440.53;;;;;;;17.92;84.48;94621.63;5034627;28;20440;-74
2023/11/06 06:42:48;;;;;;;579.90;480.57;;;;;;;17.97;83.97;94621.13;5015699;28;20854;-74
2023/11/06 06:45:16;;;;;;;574.53;449.60;;;;;;;18.05;84.69;94621.03;5033977;28;20447;-74
2023/11/06 06:47:42;;;;;;;576.90;456.90;;;;;;;18.17;85.86;94619.53;5033824;28;20445;-74
2023/11/06 06:50:13;;;;;;;578.43;473.60;;;;;;;18.22;84.49;94623.31;4999089;28;20449;-74
2023/11/06 06:52:39;;;;;;;584.27;484.57;;;;;;;18.18;83.42;94619.38;5033700;28;20450;-74
2023/11/06 06:55:07;;;;;;;587.40;498.63;;;;;;;17.88;82.57;94621.16;5033515;28;20438;-74
2023/11/06 06:57:34;;;;;;;579.77;473.57;;;;;;;17.99;83.18;94632.38;4999150;28;20441;-74
2023/11/06 07:00:03;;;;;;;582.67;459.23;;;;;;;17.90;83.84;94628.94;5014831;28;20447;-74
2023/11/06 07:02:32;;;;;;;575.93;444.50;;;;;;;17.79;82.58;94643.50;5033883;28;20573;-74
2023/11/06 07:05:03;;;;;;;580.83;477.40;;;;;;;17.47;82.07;94641.09;5033892;28;20436;-74
2023/11/06 07:07:30;;;;;;;572.83;429.00;;;;;;;17.40;83.74;94633.03;5034328;28;20424;-74
2023/11/06 07:09:57;;;;;;;571.17;422.13;;;;;;;17.30;84.94;94646.50;5033832;28;20453;-73
2023/11/06 07:12:24;;;;;;;574.23;435.83;;;;;;;17.34;86.03;94634.53;5033910;28;20445;-74
2023/11/06 07:14:51;;;;;;;571.80;434.37;;;;;;;17.24;81.68;94651.72;5034113;28;20447;-75
2023/11/06 07:17:19;;;;;;;570.27;410.93;;;;;;;17.08;80.20;94650.00;5033463;28;20929;-75
2023/11/06 07:19:46;;;;;;;577.43;457.43;;;;;;;17.11;79.82;94659.44;5032583;28;20566;-74
2023/11/06 07:22:13;;;;;;;570.60;425.40;;;;;;;16.92;79.79;94661.53;5033186;28;20526;-73
2023/11/06 07:24:40;;;;;;;569.87;412.73;;;;;;;16.95;79.21;94660.34;5014614;28;20526;-73
2023/11/06 07:27:07;;;;;;;567.27;409.53;;;;;;;16.92;79.87;94666.81;5033343;28;20442;-73
2023/11/06 07:29:34;;;;;;;566.07;410.93;;;;;;;16.94;77.62;94666.66;4998336;28;20426;-73
2023/11/06 07:32:01;;;;;;;569.03;413.77;;;;;;;17.04;77.39;94669.88;5033725;28;20535;-74
2023/11/06 07:34:29;;;;;;;567.83;407.90;;;;;;;17.12;77.49;94667.22;5033047;28;20450;-73
2023/11/06 07:36:56;;;;;;;566.30;418.87;;;;;;;17.25;77.72;94677.22;5032981;28;20450;-74
2023/11/06 07:39:22;;;;;;;566.30;424.37;;;;;;;17.32;77.12;94676.34;5014131;28;20443;-74
2023/11/06 07:41:50;;;;;;;562.10;411.73;;;;;;;16.99;75.09;94680.19;5032617;28;20488;-74
2023/11/06 07:44:19;;;;;;;567.67;432.37;;;;;;;17.08;73.06;94678.34;5032723;28;20435;-73
2023/11/06 07:46:46;;;;;;;569.07;443.33;;;;;;;17.02;73.01;94683.31;5033114;28;20500;-73
2023/11/06 07:49:13;;;;;;;561.87;420.07;;;;;;;17.14;72.77;94682.94;5032614;28;20436;-73
2023/11/06 07:51:42;;;;;;;565.67;435.30;;;;;;;17.23;73.79;94681.88;5032498;28;20497;-74
2023/11/06 07:54:08;;;;;;;555.90;417.40;;;;;;;17.16;74.24;94673.81;5032430;28;20449;-74
2023/11/06 07:56:37;;;;;;;557.03;417.20;;;;;;;17.03;75.13;94687.63;5032943;28;20446;-75
2023/11/06 07:59:04;;;;;;;560.10;430.27;;;;;;;17.18;75.74;94689.53;5032798;28;20966;-74
2023/11/06 08:01:31;;;;;;;562.50;441.60;;;;;;;17.14;73.66;94693.56;5033040;28;20440;-74
2023/11/06 08:03:58;;;;;;;552.83;421.77;;;;;;;17.18;73.98;94697.50;5032559;28;20447;-73
2023/11/06 08:06:24;;;;;;;546.17;411.93;;;;;;;17.00;72.18;94695.09;5032589;28;20445;-73
2023/11/06 08:08:53;;;;;;;549.83;419.93;;;;;;;17.16;73.43;94689.72;5032342;28;20447;-73
2023/11/06 08:11:21;;;;;;;546.20;398.70;;;;;;;17.25;73.65;94695.78;5032759;28;20447;-73
2023/11/06 08:13:48;;;;;;;556.60;450.67;;;;;;;17.17;73.75;94690.53;5032510;28;20832;-74
2023/11/06 08:16:15;;;;;;;555.47;424.10;;;;;;;17.22;73.58;94699.63;5032801;28;20517;-75
2023/11/06 08:18:41;;;;;;;549.00;431.87;;;;;;;17.33;72.49;94690.44;5032171;28;20467;-74
2023/11/06 08:21:09;;;;;;;549.17;434.80;;;;;;;17.32;74.18;94694.91;5032173;28;20453;-75
2023/11/06 08:23:36;;;;;;;554.57;460.33;;;;;;;17.39;73.44;94694.22;5032064;28;20478;-73
2023/11/06 08:26:05;;;;;;;542.50;426.90;;;;;;;17.40;73.19;94695.88;5032467;28;20451;-73
2023/11/06 08:28:34;;;;;;;548.83;433.50;;;;;;;17.58;73.09;94696.38;5032204;28;20442;-73
2023/11/06 08:31:01;;;;;;;538.60;441.20;;;;;;;17.61;72.38;94704.81;5014365;28;20439;-73
2023/11/06 08:33:30;;;;;;;549.53;484.33;;;;;;;17.82;72.45;94695.41;5036083;28;20451;-75
2023/11/06 08:35:59;;;;;;;541.50;471.00;;;;;;;18.00;72.37;94705.72;5036250;28;20452;-73
2023/11/06 08:38:25;;;;;;;541.70;470.40;;;;;;;18.16;73.17;94694.91;5036365;28;20452;-73
2023/11/06 08:40:53;;;;;;;545.93;486.30;;;;;;;18.26;70.78;94708.78;5036485;28;20450;-74
2023/11/06 08:43:22;;;;;;;545.37;465.60;;;;;;;18.19;70.06;94702.53;5036403;28;20480;-74
2023/11/06 08:45:48;;;;;;;563.70;498.97;;;;;;;18.31;71.50;94711.72;5035721;28;20959;-75
2023/11/06 08:48:15;;;;;;;561.97;497.80;;;;;;;18.24;69.20;94708.13;5036011;28;20451;-75
2023/11/06 08:50:42;;;;;;;559.20;491.10;;;;;;;18.29;69.16;94703.09;5036036;28;20442;-74
2023/11/06 08:53:09;;;;;;;552.63;463.33;;;;;;;18.43;68.47;94709.41;5036650;28;20452;-74
2023/11/06 08:55:36;;;;;;;561.13;496.43;;;;;;;18.44;69.04;94714.56;5036779;28;20472;-73
2023/11/06 08:58:03;;;;;;;548.17;451.57;;;;;;;18.49;68.45;94717.47;5036737;28;20951;-74
2023/11/06 09:00:31;;;;;;;560.90;492.07;;;;;;;18.63;68.83;94715.06;5036832;28;20448;-73
2023/11/06 09:02:58;;;;;;;571.43;509.43;;;;;;;18.78;67.36;94711.38;5036722;28;20489;-73
2023/11/06 09:05:26;;;;;;;552.10;481.10;;;;;;;18.81;67.22;94720.84;5036975;28;20504;-74
2023/11/06 09:07:53;;;;;;;554.20;491.60;;;;;;;18.99;66.38;94715.94;5037255;28;20438;-74
2023/11/06 09:10:20;;;;;;;567.07;505.63;;;;;;;19.01;67.50;94724.56;5037128;28;20514;-72
2023/11/06 09:12:47;;;;;;;578.10;516.37;;;;;;;19.00;68.67;94714.09;5036804;28;21133;-73
2023/11/06 09:15:14;;;;;;;597.30;535.70;;;;;;;19.16;66.90;94703.25;5036110;28;20441;-74
2023/11/06 09:17:42;;;;;;;582.07;520.47;;;;;;;19.14;65.23;94730.06;5035222;28;20442;-74
2023/11/06 09:20:10;;;;;;;560.73;499.97;;;;;;;18.91;64.61;94725.84;5035587;28;20486;-74
2023/11/06 09:22:37;;;;;;;581.87;520.60;;;;;;;19.03;66.46;94717.22;5035633;28;20493;-73
2023/11/06 09:25:05;;;;;;;604.23;542.57;;;;;;;19.10;65.78;94717.31;5035454;28;20438;-74
2023/11/06 09:27:33;;;;;;;579.13;518.43;;;;;;;19.08;63.46;94728.13;5035823;28;20652;-74
2023/11/06 09:30:00;;;;;;;580.57;520.73;;;;;;;19.10;63.32;94722.63;5035289;28;20450;-73
2023/11/06 09:32:27;;;;;;;575.90;516.30;;;;;;;18.93;63.21;94724.66;5035429;28;20442;-73
2023/11/06 09:34:56;;;;;;;576.37;516.27;;;;;;;18.99;64.06;94717.78;5035662;28;20453;-74
2023/11/06 09:37:24;;;;;;;575.47;515.20;;;;;;;19.04;65.84;94718.84;5035501;28;20966;-73
2023/11/06 09:39:51;;;;;;;565.60;506.77;;;;;;;19.14;64.24;94716.75;5035442;28;20474;-72
2023/11/06 09:42:18;;;;;;;571.23;511.97;;;;;;;19.23;62.98;94713.97;5034626;28;20486;-73
2023/11/06 09:44:46;;;;;;;588.13;528.40;;;;;;;19.11;62.84;94719.78;5035133;28;20446;-73
2023/11/06 09:47:15;;;;;;;598.73;538.93;;;;;;;19.08;63.03;94704.22;5035199;28;20788;-72
2023/11/06 09:49:44;;;;;;;561.23;501.83;;;;;;;19.08;63.45;94698.88;5035488;28;20448;-74
2023/11/06 09:52:15;;;;;;;557.53;498.97;;;;;;;19.16;62.37;94706.75;5035483;28;20440;-74
2023/11/06 09:54:44;;;;;;;597.93;538.13;;;;;;;19.22;62.85;94699.03;5035279;28;20941;-73
2023/11/06 09:57:12;;;;;;;606.83;546.13;;;;;;;19.29;61.50;94694.59;5035361;28;20454;-73
2023/11/06 09:59:41;;;;;;;571.77;511.97;;;;;;;19.33;61.24;94695.84;5000775;28;20446;-74
2023/11/06 10:02:10;;;;;;;591.63;532.27;;;;;;;19.42;60.05;94694.75;5035801;28;20442;-72
2023/11/06 10:04:37;;;;;;;577.50;518.73;;;;;;;19.31;58.08;94696.06;5035437;28;20449;-73
2023/11/06 10:07:04;;;;;;;590.30;530.80;;;;;;;19.47;59.19;94695.00;5035332;28;20438;-73
2023/11/06 10:09:34;;;;;;;616.73;557.13;;;;;;;19.58;58.40;94693.69;5035502;28;20497;-73
2023/11/06 10:12:14;;;;;;;623.60;564.00;;;;;;;19.79;57.97;94696.38;5035416;28;20455;-74
2023/11/06 10:14:42;;;;;;;587.77;529.73;;;;;;;19.58;56.65;94683.88;5017178;28;20529;-73
2023/11/06 10:17:09;;;;;;;626.10;566.73;;;;;;;19.63;57.99;94683.28;5035231;28;20447;-73
2023/11/06 10:19:35;;;;;;;585.60;527.10;;;;;;;19.75;56.64;94679.13;5035290;28;21059;-74
2023/11/06 10:22:12;;;;;;;607.57;548.53;;;;;;;19.79;57.92;94680.38;5035492;28;20495;-74
2023/11/06 10:24:49;;;;;;;595.10;536.43;;;;;;;19.60;56.89;94668.53;5017103;28;20793;-73
2023/11/06 10:27:23;;;;;;;586.57;527.80;;;;;;;19.41;57.58;94669.16;5035343;28;20438;-74
2023/11/06 10:29:58;;;;;;;589.10;529.97;;;;;;;19.45;58.02;94663.25;5035421;28;20443;-74
2023/11/06 10:32:26;;;;;;;584.93;525.53;;;;;;;19.52;58.42;94659.81;4983709;28;20948;-74
2023/11/06 10:34:52;;;;;;;589.83;531.03;;;;;;;19.45;56.43;94659.78;5035423;28;20483;-73
2023/11/06 10:37:26;;;;;;;619.33;558.73;;;;;;;19.38;57.65;94661.56;5036202;28;20442;-74
2023/11/06 10:39:55;;;;;;;582.77;522.87;;;;;;;19.30;57.16;94654.50;5035539;28;21014;-74
2023/11/06 10:42:23;;;;;;;611.47;551.37;;;;;;;19.29;56.38;94655.50;5035360;28;20443;-74
2023/11/06 10:44:56;;;;;;;597.87;539.13;;;;;;;19.40;57.42;94654.19;5035421;28;20932;-74
2023/11/06 10:47:26;;;;;;;590.07;530.57;;;;;;;19.62;57.23;94652.38;5035462;28;20960;-74
2023/11/06 10:49:59;;;;;;;581.13;522.20;;;;;;;19.67;55.95;94648.16;5036608;28;20451;-74
2023/11/06 10:52:28;;;;;;;608.30;549.60;;;;;;;19.73;54.91;94636.72;5038607;28;20452;-75
2023/11/06 10:54:59;;;;;;;658.77;599.17;;;;;;;19.73;53.90;94639.38;5046571;28;20452;-76
2023/11/06 10:57:29;;;;;;;607.77;548.57;;;;;;;19.85;53.89;94637.00;5014004;28;20521;-74
2023/11/06 11:00:00;;;;;;;621.63;562.20;;;;;;;19.87;50.87;94636.81;5051219;28;20444;-74
2023/11/06 11:02:42;;;;;;;625.07;566.10;;;;;;;19.88;51.66;94638.47;5051068;28;20481;-75
2023/11/06 11:05:12;;;;;;;620.37;561.80;;;;;;;19.96;52.54;94643.66;5050701;28;20444;-73